createdAt,value
2023-06-17T00:00:24.419Z,11.30
2023-06-17T00:01:24.459Z,12.30
2023-06-17T00:02:24.464Z,12.50
2023-06-17T00:03:24.490Z,10.90
2023-06-17T00:04:24.361Z,11.80
2023-06-17T00:05:24.357Z,11.40
2023-06-17T00:06:24.371Z,12.70
2023-06-17T00:07:24.365Z,12.00
2023-06-17T00:08:24.327Z,11.60
2023-06-17T00:09:24.315Z,11.20
2023-06-17T00:10:24.302Z,11.90
2023-06-17T00:11:24.363Z,11.20
2023-06-17T00:12:24.303Z,13.40
2023-06-17T00:13:24.267Z,12.40
2023-06-17T00:14:24.284Z,12.50
2023-06-17T00:15:24.269Z,13.70
2023-06-17T00:16:24.244Z,14.10
2023-06-17T00:17:24.255Z,12.80
2023-06-17T00:18:24.222Z,13.40
2023-06-17T00:19:24.204Z,12.20
2023-06-17T00:20:24.433Z,11.90
2023-06-17T00:21:24.181Z,12.80
2023-06-17T00:22:24.181Z,12.10
2023-06-17T00:23:24.145Z,12.40
2023-06-17T00:24:24.216Z,13.10
2023-06-17T00:25:24.138Z,14.20
2023-06-17T00:26:24.117Z,13.40
2023-06-17T00:27:24.129Z,13.20
2023-06-17T00:28:24.104Z,15.00
2023-06-17T00:29:24.098Z,13.30
2023-06-17T00:30:24.158Z,13.80
2023-06-17T00:31:24.065Z,12.50
2023-06-17T00:32:24.102Z,13.70
2023-06-17T00:33:24.046Z,12.30
2023-06-17T00:34:24.036Z,13.40
2023-06-17T00:35:24.012Z,12.20
2023-06-17T00:36:24.021Z,13.30
2023-06-17T00:37:24.010Z,12.80
2023-06-17T00:38:24.023Z,13.10
2023-06-17T00:39:23.989Z,12.50
2023-06-17T00:40:23.957Z,13.00
2023-06-17T00:41:23.980Z,12.30
2023-06-17T00:42:23.956Z,12.50
2023-06-17T00:43:23.949Z,13.00
2023-06-17T00:44:23.918Z,13.50
2023-06-17T00:45:23.909Z,12.20
2023-06-17T00:46:23.957Z,13.50
2023-06-17T00:47:23.905Z,12.10
2023-06-17T00:48:23.877Z,11.70
2023-06-17T00:49:23.874Z,12.00
2023-06-17T00:50:24.002Z,13.00
2023-06-17T00:51:23.833Z,11.70
2023-06-17T00:52:40.400Z,13.50
2023-06-17T00:53:23.820Z,12.90
2023-06-17T00:54:23.804Z,12.60
2023-06-17T00:55:23.804Z,12.30
2023-06-17T00:56:23.802Z,12.20
2023-06-17T00:57:23.789Z,12.50
2023-06-17T00:58:23.819Z,12.40
2023-06-17T00:59:23.757Z,12.30
2023-06-17T01:00:24.002Z,11.20
2023-06-17T01:01:23.750Z,12.70
2023-06-17T01:02:23.739Z,13.80
2023-06-17T01:03:23.804Z,13.40
2023-06-17T01:04:23.690Z,12.90
2023-06-17T01:05:23.712Z,12.80
2023-06-17T01:06:23.674Z,12.10
2023-06-17T01:07:23.679Z,12.20
2023-06-17T01:08:23.663Z,12.30
2023-06-17T01:09:23.626Z,12.50
2023-06-17T01:10:23.792Z,12.00
2023-06-17T01:11:23.622Z,12.60
2023-06-17T01:12:23.642Z,12.10
2023-06-17T01:13:23.621Z,12.30
2023-06-17T01:14:23.589Z,11.60
2023-06-17T01:15:23.571Z,12.90
2023-06-17T01:16:23.603Z,12.60
2023-06-17T01:17:23.562Z,11.50
2023-06-17T01:18:23.554Z,11.90
2023-06-17T01:19:23.532Z,12.50
2023-06-17T01:20:23.835Z,11.60
2023-06-17T01:21:23.505Z,12.60
2023-06-17T01:22:23.523Z,12.10
2023-06-17T01:23:23.569Z,13.60
2023-06-17T01:24:23.483Z,12.70
2023-06-17T01:25:23.452Z,12.00
2023-06-17T01:26:23.463Z,13.00
2023-06-17T01:27:23.448Z,12.10
2023-06-17T01:28:23.457Z,12.40
2023-06-17T01:29:23.409Z,12.10
2023-06-17T01:30:23.586Z,13.30
2023-06-17T01:31:23.410Z,11.20
2023-06-17T01:32:23.414Z,12.50
2023-06-17T01:33:23.381Z,12.20
2023-06-17T01:34:23.345Z,11.70
2023-06-17T01:35:23.343Z,12.30
2023-06-17T01:36:23.339Z,14.00
2023-06-17T01:37:23.310Z,12.30
2023-06-17T01:38:23.328Z,12.10
2023-06-17T01:39:23.302Z,12.50
2023-06-17T01:40:23.545Z,13.50
2023-06-17T01:41:23.276Z,12.40
2023-06-17T01:42:23.251Z,12.20
2023-06-17T01:43:23.268Z,13.80
2023-06-17T01:44:23.239Z,13.10
2023-06-17T01:45:23.247Z,12.50
2023-06-17T01:46:23.277Z,12.60
2023-06-17T01:47:23.254Z,13.00
2023-06-17T01:48:23.207Z,12.70
2023-06-17T01:49:23.186Z,11.90
2023-06-17T01:50:23.451Z,11.80
2023-06-17T01:51:23.272Z,12.10
2023-06-17T01:52:23.145Z,12.60
2023-06-17T01:53:23.168Z,12.10
2023-06-17T01:54:23.139Z,13.20
2023-06-17T01:55:23.154Z,12.00
2023-06-17T01:56:23.103Z,12.60
2023-06-17T01:57:23.103Z,12.30
2023-06-17T01:58:23.115Z,12.00
2023-06-17T01:59:23.100Z,13.50
2023-06-17T02:00:23.266Z,12.60
2023-06-17T02:01:23.055Z,12.20
2023-06-17T02:02:23.066Z,13.10
2023-06-17T02:03:23.202Z,11.90
2023-06-17T02:04:23.048Z,12.10
2023-06-17T02:05:23.018Z,11.90
2023-06-17T02:06:23.012Z,13.20
2023-06-17T02:07:22.986Z,11.90
2023-06-17T02:08:23.009Z,13.90
2023-06-17T02:09:22.973Z,12.10
2023-06-17T02:10:23.135Z,12.50
2023-06-17T02:11:22.938Z,12.70
2023-06-17T02:12:22.934Z,11.90
2023-06-17T02:13:22.942Z,12.50
2023-06-17T02:14:22.909Z,12.70
2023-06-17T02:15:22.900Z,12.50
2023-06-17T02:16:22.922Z,11.30
2023-06-17T02:17:22.884Z,13.00
2023-06-17T02:18:22.875Z,13.70
2023-06-17T02:19:22.844Z,12.80
2023-06-17T02:20:23.024Z,12.10
2023-06-17T02:21:22.838Z,11.90
2023-06-17T02:22:22.923Z,12.80
2023-06-17T02:23:22.833Z,12.80
2023-06-17T02:24:22.828Z,11.30
2023-06-17T02:25:22.799Z,12.10
2023-06-17T02:26:22.776Z,12.40
2023-06-17T02:27:22.850Z,11.40
2023-06-17T02:28:22.787Z,11.90
2023-06-17T02:29:22.746Z,10.70
2023-06-17T02:30:23.011Z,10.90
2023-06-17T02:31:22.791Z,11.40
2023-06-17T02:32:22.709Z,12.00
2023-06-17T02:33:22.720Z,11.80
2023-06-17T02:34:22.699Z,11.60
2023-06-17T02:35:22.700Z,12.20
2023-06-17T02:36:22.687Z,11.90
2023-06-17T02:37:22.688Z,12.60
2023-06-17T02:38:22.677Z,13.10
2023-06-17T02:39:22.650Z,13.40
2023-06-17T02:40:22.918Z,12.30
2023-06-17T02:41:22.609Z,12.20
2023-06-17T02:42:22.590Z,12.80
2023-06-17T02:43:22.623Z,12.90
2023-06-17T02:44:22.581Z,13.10
2023-06-17T02:45:22.590Z,13.10
2023-06-17T02:46:22.590Z,13.00
2023-06-17T02:47:22.541Z,12.00
2023-06-17T02:48:22.542Z,13.50
2023-06-17T02:49:22.519Z,13.10
2023-06-17T02:50:22.656Z,13.00
2023-06-17T02:51:22.488Z,14.20
2023-06-17T02:52:22.492Z,12.80
2023-06-17T02:53:22.492Z,13.20
2023-06-17T02:54:22.544Z,11.90
2023-06-17T02:55:22.465Z,13.00
2023-06-17T02:56:22.432Z,12.60
2023-06-17T02:57:22.472Z,12.40
2023-06-17T02:58:22.444Z,12.60
2023-06-17T02:59:22.439Z,13.30
2023-06-17T03:00:22.661Z,12.40
2023-06-17T03:01:22.496Z,11.80
2023-06-17T03:02:22.477Z,11.40
2023-06-17T03:03:22.425Z,12.00
2023-06-17T03:04:22.356Z,12.70
2023-06-17T03:05:22.366Z,12.30
2023-06-17T03:06:22.322Z,11.50
2023-06-17T03:07:22.345Z,11.20
2023-06-17T03:08:22.313Z,12.10
2023-06-17T03:09:22.302Z,12.20
2023-06-17T03:10:22.529Z,11.90
2023-06-17T03:11:22.267Z,12.80
2023-06-17T03:12:22.289Z,11.70
2023-06-17T03:13:22.264Z,11.60
2023-06-17T03:14:22.236Z,12.50
2023-06-17T03:15:22.249Z,12.30
2023-06-17T03:16:22.317Z,11.80
2023-06-17T03:17:22.228Z,12.20
2023-06-17T03:18:22.210Z,13.40
2023-06-17T03:19:22.170Z,13.40
2023-06-17T03:20:22.486Z,13.40
2023-06-17T03:21:22.160Z,12.70
2023-06-17T03:22:22.156Z,13.40
2023-06-17T03:23:22.166Z,13.40
2023-06-17T03:24:22.154Z,12.60
2023-06-17T03:25:22.123Z,13.80
2023-06-17T03:26:22.113Z,13.00
2023-06-17T03:27:22.125Z,14.00
2023-06-17T03:28:22.095Z,12.90
2023-06-17T03:29:22.129Z,13.90
2023-06-17T03:30:22.274Z,12.80
2023-06-17T03:31:22.106Z,13.50
2023-06-17T03:32:22.093Z,13.80
2023-06-17T03:33:22.032Z,14.00
2023-06-17T03:34:22.014Z,13.00
2023-06-17T03:35:22.009Z,14.30
2023-06-17T03:36:21.981Z,13.20
2023-06-17T03:37:22.031Z,12.70
2023-06-17T03:38:21.996Z,12.60
2023-06-17T03:39:21.956Z,13.40
2023-06-17T03:40:22.277Z,14.30
2023-06-17T03:41:21.989Z,13.10
2023-06-17T03:42:21.934Z,12.80
2023-06-17T03:43:21.934Z,13.10
2023-06-17T03:44:21.905Z,13.30
2023-06-17T03:45:21.910Z,13.10
2023-06-17T03:46:21.892Z,12.10
2023-06-17T03:47:21.867Z,14.50
2023-06-17T03:48:21.876Z,13.60
2023-06-17T03:49:21.861Z,13.70
2023-06-17T03:50:22.090Z,13.10
2023-06-17T03:51:21.840Z,12.30
2023-06-17T03:52:21.826Z,13.80
2023-06-17T03:53:21.815Z,14.90
2023-06-17T03:54:21.808Z,14.20
2023-06-17T03:55:21.835Z,13.50
2023-06-17T03:56:21.759Z,13.80
2023-06-17T03:57:21.775Z,13.20
2023-06-17T03:58:21.764Z,13.50
2023-06-17T03:59:21.742Z,13.40
2023-06-17T04:00:21.950Z,13.20
2023-06-17T04:01:21.709Z,13.00
2023-06-17T04:02:21.789Z,13.50
2023-06-17T04:03:21.778Z,13.30
2023-06-17T04:04:21.733Z,13.60
2023-06-17T04:05:21.682Z,11.90
2023-06-17T04:06:21.652Z,13.40
2023-06-17T04:07:21.654Z,14.60
2023-06-17T04:08:21.661Z,13.90
2023-06-17T04:09:21.625Z,13.20
2023-06-17T04:10:21.624Z,13.40
2023-06-17T04:11:21.601Z,15.80
2023-06-17T04:12:21.586Z,13.70
2023-06-17T04:13:21.604Z,15.00
2023-06-17T04:14:21.561Z,14.80
2023-06-17T04:15:21.579Z,14.20
2023-06-17T04:16:21.548Z,14.20
2023-06-17T04:17:21.529Z,14.40
2023-06-17T04:18:21.601Z,15.00
2023-06-17T04:19:21.515Z,14.70
2023-06-17T04:20:21.725Z,15.20
2023-06-17T04:21:21.534Z,16.40
2023-06-17T04:22:21.492Z,15.00
2023-06-17T04:23:21.468Z,14.80
2023-06-17T04:24:21.589Z,14.70
2023-06-17T04:25:21.435Z,14.90
2023-06-17T04:26:21.435Z,13.90
2023-06-17T04:27:21.426Z,15.60
2023-06-17T04:28:21.435Z,15.30
2023-06-17T04:29:21.402Z,14.70
2023-06-17T04:30:21.622Z,15.60
2023-06-17T04:31:21.382Z,15.40
2023-06-17T04:32:21.373Z,15.90
2023-06-17T04:33:21.384Z,14.50
2023-06-17T04:34:21.338Z,14.20
2023-06-17T04:35:21.333Z,13.90
2023-06-17T04:36:21.314Z,14.90
2023-06-17T04:37:21.315Z,14.90
2023-06-17T04:38:21.320Z,14.20
2023-06-17T04:39:21.295Z,15.00
2023-06-17T04:40:21.472Z,15.70
2023-06-17T04:41:21.249Z,13.80
2023-06-17T04:42:21.249Z,14.30
2023-06-17T04:43:21.256Z,14.20
2023-06-17T04:44:21.251Z,14.50
2023-06-17T04:45:21.222Z,13.90
2023-06-17T04:46:21.273Z,15.30
2023-06-17T04:47:21.266Z,15.20
2023-06-17T04:48:21.185Z,15.20
2023-06-17T04:49:21.193Z,15.00
2023-06-17T04:50:21.424Z,15.30
2023-06-17T04:51:21.144Z,15.00
2023-06-17T04:52:27.688Z,14.20
2023-06-17T04:53:21.125Z,14.40
2023-06-17T04:54:21.126Z,14.80
2023-06-17T04:55:21.112Z,15.00
2023-06-17T04:56:21.205Z,14.20
2023-06-17T04:57:21.081Z,14.10
2023-06-17T04:58:21.083Z,14.60
2023-06-17T04:59:21.083Z,14.60
2023-06-17T05:00:22.492Z,15.50
2023-06-17T05:01:21.072Z,15.30
2023-06-17T05:02:21.053Z,15.30
2023-06-17T05:03:21.047Z,15.50
2023-06-17T05:04:21.017Z,15.60
2023-06-17T05:05:20.996Z,16.30
2023-06-17T05:06:20.989Z,16.50
2023-06-17T05:07:20.960Z,15.40
2023-06-17T05:08:20.954Z,17.70
2023-06-17T05:09:20.965Z,17.20
2023-06-17T05:10:21.249Z,16.20
2023-06-17T05:11:20.926Z,16.00
2023-06-17T05:12:20.929Z,16.70
2023-06-17T05:13:20.903Z,15.90
2023-06-17T05:14:20.902Z,15.70
2023-06-17T05:15:20.875Z,15.10
2023-06-17T05:16:20.883Z,16.20
2023-06-17T05:17:20.895Z,15.80
2023-06-17T05:18:20.843Z,15.60
2023-06-17T05:19:20.850Z,15.50
2023-06-17T05:20:21.061Z,14.80
2023-06-17T05:21:20.811Z,16.00
2023-06-17T05:22:20.809Z,14.00
2023-06-17T05:23:20.784Z,15.50
2023-06-17T05:24:20.804Z,15.00
2023-06-17T05:25:20.775Z,14.20
2023-06-17T05:26:20.758Z,14.70
2023-06-17T05:27:20.743Z,15.00
2023-06-17T05:28:20.749Z,15.20
2023-06-17T05:29:20.717Z,15.60
2023-06-17T05:30:20.929Z,15.00
2023-06-17T05:31:20.756Z,15.30
2023-06-17T05:32:20.685Z,14.60
2023-06-17T05:33:20.677Z,14.10
2023-06-17T05:34:20.674Z,13.20
2023-06-17T05:35:20.660Z,13.70
2023-06-17T05:36:20.664Z,14.00
2023-06-17T05:37:20.626Z,14.90
2023-06-17T05:38:20.620Z,13.80
2023-06-17T05:39:20.606Z,14.10
2023-06-17T05:40:20.905Z,13.90
2023-06-17T05:41:20.588Z,13.70
2023-06-17T05:42:20.597Z,15.10
2023-06-17T05:43:20.568Z,14.00
2023-06-17T05:44:20.561Z,13.60
2023-06-17T05:45:20.548Z,13.60
2023-06-17T05:46:20.627Z,14.10
2023-06-17T05:47:20.536Z,14.30
2023-06-17T05:48:20.513Z,13.70
2023-06-17T05:49:20.500Z,13.50
2023-06-17T05:50:20.861Z,14.40
2023-06-17T05:51:20.477Z,14.20
2023-06-17T05:52:20.481Z,14.60
2023-06-17T05:53:20.480Z,14.60
2023-06-17T05:54:20.456Z,14.00
2023-06-17T05:55:20.436Z,14.70
2023-06-17T05:56:20.425Z,13.50
2023-06-17T05:57:20.413Z,15.20
2023-06-17T05:58:20.411Z,15.30
2023-06-17T05:59:20.411Z,14.80
2023-06-17T06:00:20.735Z,14.10
2023-06-17T06:01:20.445Z,14.30
2023-06-17T06:02:20.366Z,13.90
2023-06-17T06:03:20.373Z,14.40
2023-06-17T06:04:20.367Z,14.40
2023-06-17T06:05:20.362Z,15.20
2023-06-17T06:06:20.331Z,14.80
2023-06-17T06:07:20.308Z,15.20
2023-06-17T06:08:20.296Z,14.40
2023-06-17T06:09:20.285Z,13.50
2023-06-17T06:10:20.597Z,16.00
2023-06-17T06:11:20.255Z,14.40
2023-06-17T06:12:20.257Z,14.60
2023-06-17T06:13:20.239Z,14.40
2023-06-17T06:14:20.235Z,15.80
2023-06-17T06:15:20.240Z,15.00
2023-06-17T06:16:20.260Z,15.20
2023-06-17T06:17:20.199Z,14.90
2023-06-17T06:18:20.195Z,14.10
2023-06-17T06:19:20.164Z,14.90
2023-06-17T06:20:20.479Z,14.30
2023-06-17T06:21:20.170Z,14.90
2023-06-17T06:22:20.159Z,13.90
2023-06-17T06:23:20.130Z,14.80
2023-06-17T06:24:20.152Z,15.10
2023-06-17T06:25:20.131Z,14.30
2023-06-17T06:26:20.098Z,14.20
2023-06-17T06:27:20.094Z,13.90
2023-06-17T06:28:20.073Z,14.70
2023-06-17T06:29:20.094Z,14.50
2023-06-17T06:30:20.251Z,14.90
2023-06-17T06:31:20.041Z,14.40
2023-06-17T06:32:20.039Z,15.10
2023-06-17T06:33:20.019Z,14.10
2023-06-17T06:34:20.021Z,14.60
2023-06-17T06:35:20.015Z,14.30
2023-06-17T06:36:19.980Z,14.00
2023-06-17T06:37:19.972Z,14.30
2023-06-17T06:38:19.962Z,14.50
2023-06-17T06:39:19.966Z,16.00
2023-06-17T06:40:20.276Z,14.60
2023-06-17T06:41:19.926Z,14.70
2023-06-17T06:42:19.930Z,14.00
2023-06-17T06:43:19.912Z,13.40
2023-06-17T06:44:19.895Z,15.10
2023-06-17T06:45:19.911Z,14.50
2023-06-17T06:46:19.898Z,14.20
2023-06-17T06:47:19.881Z,14.70
2023-06-17T06:48:19.847Z,14.30
2023-06-17T06:49:19.840Z,13.80
2023-06-17T06:50:20.033Z,15.10
2023-06-17T06:51:19.816Z,14.20
2023-06-17T06:52:19.816Z,14.20
2023-06-17T06:53:19.793Z,16.30
2023-06-17T06:54:19.785Z,16.20
2023-06-17T06:55:19.796Z,14.00
2023-06-17T06:56:19.763Z,14.50
2023-06-17T06:57:19.757Z,14.60
2023-06-17T06:58:19.747Z,13.50
2023-06-17T06:59:19.738Z,14.00
2023-06-17T07:00:20.095Z,14.50
2023-06-17T07:01:19.800Z,14.40
2023-06-17T07:02:19.714Z,13.10
2023-06-17T07:03:19.685Z,14.30
2023-06-17T07:04:19.693Z,14.00
2023-06-17T07:05:19.681Z,13.90
2023-06-17T07:06:19.660Z,13.90
2023-06-17T07:07:19.644Z,14.30
2023-06-17T07:08:19.643Z,13.40
2023-06-17T07:09:19.615Z,14.60
2023-06-17T07:10:19.755Z,14.50
2023-06-17T07:11:19.590Z,15.50
2023-06-17T07:12:19.584Z,15.10
2023-06-17T07:13:19.571Z,14.30
2023-06-17T07:14:19.569Z,13.50
2023-06-17T07:15:19.570Z,14.10
2023-06-17T07:16:19.606Z,15.60
2023-06-17T07:17:19.546Z,14.50
2023-06-17T07:18:19.515Z,14.90
2023-06-17T07:19:19.511Z,14.50
2023-06-17T07:20:19.966Z,14.60
2023-06-17T07:21:19.495Z,14.50
2023-06-17T07:22:19.470Z,15.10
2023-06-17T07:23:19.464Z,15.00
2023-06-17T07:24:19.487Z,13.90
2023-06-17T07:25:19.436Z,14.20
2023-06-17T07:26:19.437Z,15.00
2023-06-17T07:27:19.417Z,14.50
2023-06-17T07:28:19.408Z,15.30
2023-06-17T07:29:19.389Z,13.70
2023-06-17T07:30:19.681Z,15.30
2023-06-17T07:31:19.461Z,15.50
2023-06-17T07:32:19.400Z,14.30
2023-06-17T07:33:19.410Z,14.40
2023-06-17T07:34:19.330Z,14.60
2023-06-17T07:35:19.334Z,14.30
2023-06-17T07:36:19.311Z,14.10
2023-06-17T07:37:19.324Z,13.90
2023-06-17T07:38:19.311Z,15.10
2023-06-17T07:39:19.292Z,16.40
2023-06-17T07:40:19.555Z,15.80
2023-06-17T07:41:19.260Z,14.60
2023-06-17T07:42:19.263Z,16.10
2023-06-17T07:43:19.238Z,16.00
2023-06-17T07:44:19.224Z,14.40
2023-06-17T07:45:19.222Z,14.80
2023-06-17T07:46:19.239Z,14.90
2023-06-17T07:47:19.218Z,13.50
2023-06-17T07:48:19.314Z,14.00
2023-06-17T07:49:19.184Z,14.20
2023-06-17T07:50:19.485Z,14.60
2023-06-17T07:51:19.149Z,14.60
2023-06-17T07:52:19.166Z,13.40
2023-06-17T07:53:19.131Z,13.80
2023-06-17T07:54:19.114Z,14.20
2023-06-17T07:55:19.125Z,14.40
2023-06-17T07:56:19.095Z,14.60
2023-06-17T07:57:19.094Z,14.10
2023-06-17T07:58:19.080Z,14.80
2023-06-17T07:59:19.076Z,14.70
2023-06-17T08:00:19.567Z,13.60
2023-06-17T08:01:19.095Z,13.40
2023-06-17T08:02:19.103Z,14.50
2023-06-17T08:03:19.091Z,16.20
2023-06-17T08:04:19.033Z,14.60
2023-06-17T08:05:18.997Z,13.70
2023-06-17T08:06:18.986Z,13.70
2023-06-17T08:07:18.987Z,14.10
2023-06-17T08:08:18.957Z,14.60
2023-06-17T08:09:18.952Z,15.30
2023-06-17T08:10:19.118Z,14.70
2023-06-17T08:11:18.926Z,14.40
2023-06-17T08:12:18.939Z,14.60
2023-06-17T08:13:18.917Z,13.80
2023-06-17T08:14:18.905Z,14.60
2023-06-17T08:15:18.888Z,15.10
2023-06-17T08:16:18.918Z,14.10
2023-06-17T08:17:18.874Z,13.90
2023-06-17T08:18:18.848Z,13.30
2023-06-17T08:19:18.841Z,12.90
2023-06-17T08:20:19.180Z,13.30
2023-06-17T08:21:18.821Z,14.40
2023-06-17T08:22:18.827Z,15.30
2023-06-17T08:23:18.812Z,14.80
2023-06-17T08:24:18.781Z,14.60
2023-06-17T08:25:18.773Z,14.70
2023-06-17T08:26:18.758Z,14.30
2023-06-17T08:27:18.775Z,14.20
2023-06-17T08:28:18.745Z,13.90
2023-06-17T08:29:18.736Z,13.60
2023-06-17T08:30:19.379Z,13.00
2023-06-17T08:31:18.712Z,14.20
2023-06-17T08:32:18.723Z,13.40
2023-06-17T08:33:18.685Z,14.20
2023-06-17T08:34:18.676Z,15.00
2023-06-17T08:35:18.664Z,14.20
2023-06-17T08:36:18.653Z,13.70
2023-06-17T08:37:18.656Z,13.60
2023-06-17T08:38:18.638Z,13.10
2023-06-17T08:39:18.619Z,12.80
2023-06-17T08:40:18.988Z,14.00
2023-06-17T08:41:18.602Z,12.70
2023-06-17T08:42:18.601Z,13.00
2023-06-17T08:43:18.577Z,12.70
2023-06-17T08:44:18.568Z,14.20
2023-06-17T08:45:18.547Z,13.30
2023-06-17T08:46:18.554Z,13.80
2023-06-17T08:47:18.608Z,12.80
2023-06-17T08:48:18.517Z,13.50
2023-06-17T08:49:18.526Z,13.60
2023-06-17T08:50:18.621Z,14.30
2023-06-17T08:51:18.596Z,14.00
2023-06-17T08:52:18.492Z,13.60
2023-06-17T08:53:18.504Z,12.40
2023-06-17T08:54:18.458Z,13.00
2023-06-17T08:55:18.496Z,13.40
2023-06-17T08:56:18.438Z,12.80
2023-06-17T08:57:19.442Z,12.80
2023-06-17T08:58:18.430Z,13.00
2023-06-17T08:59:18.592Z,13.00
2023-06-17T09:00:18.787Z,12.80
2023-06-17T09:01:18.438Z,12.60
2023-06-17T09:02:18.402Z,13.30
2023-06-17T09:03:18.355Z,12.60
2023-06-17T09:04:18.355Z,11.80
2023-06-17T09:05:18.418Z,11.00
2023-06-17T09:06:18.325Z,12.80
2023-06-17T09:07:18.366Z,13.10
2023-06-17T09:08:18.306Z,12.60
2023-06-17T09:09:18.289Z,13.00
2023-06-17T09:10:18.416Z,12.60
2023-06-17T09:11:18.276Z,12.50
2023-06-17T09:12:18.268Z,12.60
2023-06-17T09:13:18.278Z,13.10
2023-06-17T09:14:18.316Z,12.60
2023-06-17T09:15:18.234Z,12.80
2023-06-17T09:16:18.243Z,13.50
2023-06-17T09:17:18.279Z,13.00
2023-06-17T09:18:18.289Z,12.70
2023-06-17T09:19:18.180Z,12.80
2023-06-17T09:20:18.578Z,11.80
2023-06-17T09:21:18.178Z,12.70
2023-06-17T09:22:18.161Z,11.80
2023-06-17T09:23:18.148Z,11.90
2023-06-17T09:24:18.189Z,12.40
2023-06-17T09:25:18.122Z,13.30
2023-06-17T09:26:18.101Z,12.50
2023-06-17T09:27:18.090Z,13.40
2023-06-17T09:28:18.091Z,13.00
2023-06-17T09:29:18.093Z,11.60
2023-06-17T09:30:18.129Z,11.40
2023-06-17T09:31:18.046Z,11.00
2023-06-17T09:32:18.033Z,11.40
2023-06-17T09:33:18.041Z,11.90
2023-06-17T09:34:18.058Z,12.70
2023-06-17T09:35:18.006Z,12.30
2023-06-17T09:36:17.986Z,12.40
2023-06-17T09:37:17.981Z,11.50
2023-06-17T09:38:17.970Z,11.00
2023-06-17T09:39:17.980Z,11.90
2023-06-17T09:40:18.225Z,11.80
2023-06-17T09:41:17.950Z,12.40
2023-06-17T09:42:17.931Z,11.40
2023-06-17T09:44:16.900Z,11.50
2023-06-17T09:45:17.923Z,12.50
2023-06-17T09:46:17.932Z,11.60
2023-06-17T09:47:17.879Z,11.10
2023-06-17T09:48:17.891Z,12.10
2023-06-17T09:49:17.871Z,11.00
2023-06-17T09:50:17.882Z,11.20
2023-06-17T09:51:17.853Z,11.50
2023-06-17T09:52:17.831Z,11.90
2023-06-17T09:53:17.812Z,10.90
2023-06-17T09:54:17.795Z,10.80
2023-06-17T09:55:17.811Z,11.10
2023-06-17T09:56:17.786Z,10.90
2023-06-17T09:57:17.797Z,10.60
2023-06-17T09:58:17.767Z,10.60
2023-06-17T09:59:17.770Z,11.00
2023-06-17T10:00:17.913Z,10.70
2023-06-17T10:01:17.728Z,10.90
2023-06-17T10:02:17.746Z,12.00
2023-06-17T10:03:17.804Z,11.30
2023-06-17T10:04:17.762Z,11.20
2023-06-17T10:05:17.690Z,11.50
2023-06-17T10:06:17.677Z,10.80
2023-06-17T10:07:17.680Z,10.70
2023-06-17T10:08:17.660Z,10.70
2023-06-17T10:09:17.632Z,11.50
2023-06-17T10:10:17.695Z,11.10
2023-06-17T10:11:17.612Z,10.60
2023-06-17T10:12:17.605Z,11.80
2023-06-17T10:13:17.608Z,11.50
2023-06-17T10:14:17.581Z,11.60
2023-06-17T10:15:17.591Z,11.60
2023-06-17T10:16:17.560Z,11.30
2023-06-17T10:17:17.552Z,10.70
2023-06-17T10:18:17.543Z,11.50
2023-06-17T10:19:17.570Z,10.70
2023-06-17T10:20:17.518Z,10.30
2023-06-17T10:21:17.572Z,11.20
2023-06-17T10:22:17.503Z,11.30
2023-06-17T10:23:17.487Z,10.40
2023-06-17T10:24:17.508Z,10.40
2023-06-17T10:25:17.479Z,9.40
2023-06-17T10:26:17.453Z,10.20
2023-06-17T10:27:17.446Z,9.70
2023-06-17T10:28:17.433Z,9.30
2023-06-17T10:29:17.421Z,9.00
2023-06-17T10:30:17.437Z,9.80
2023-06-17T10:31:17.390Z,9.60
2023-06-17T10:32:17.386Z,10.00
2023-06-17T10:33:17.437Z,9.20
2023-06-17T10:34:17.366Z,9.80
2023-06-17T10:35:17.370Z,9.90
2023-06-17T10:36:17.337Z,9.40
2023-06-17T10:37:17.338Z,9.10
2023-06-17T10:38:17.321Z,9.70
2023-06-17T10:39:17.305Z,9.90
2023-06-17T10:40:17.311Z,9.50
2023-06-17T10:41:17.279Z,9.00
2023-06-17T10:42:17.287Z,8.40
2023-06-17T10:43:17.272Z,10.20
2023-06-17T10:44:17.250Z,9.90
2023-06-17T10:45:17.236Z,9.10
2023-06-17T10:46:17.284Z,9.50
2023-06-17T10:47:17.224Z,10.00
2023-06-17T10:48:17.210Z,9.20
2023-06-17T10:49:17.198Z,9.10
2023-06-17T10:50:17.200Z,8.90
2023-06-17T10:51:17.172Z,8.40
2023-06-17T10:53:18.449Z,8.20
2023-06-17T10:54:19.441Z,8.90
2023-06-17T10:55:19.419Z,8.70
2023-06-17T10:56:19.407Z,8.90
2023-06-17T10:57:19.413Z,8.20
2023-06-17T10:58:19.387Z,8.70
2023-06-17T10:59:19.378Z,8.60
2023-06-17T11:00:19.641Z,8.00
2023-06-17T11:01:19.355Z,8.50
2023-06-17T11:02:19.372Z,7.80
2023-06-17T11:03:19.513Z,8.50
2023-06-17T11:04:19.329Z,7.90
2023-06-17T11:05:19.322Z,8.50
2023-06-17T11:06:19.318Z,8.70
2023-06-17T11:07:19.315Z,7.30
2023-06-17T11:08:19.284Z,8.20
2023-06-17T11:09:19.296Z,7.70
2023-06-17T11:10:19.315Z,8.00
2023-06-17T11:11:19.256Z,8.00
2023-06-17T11:12:19.248Z,7.60
2023-06-17T11:13:19.241Z,7.30
2023-06-17T11:14:19.219Z,7.60
2023-06-17T11:15:19.234Z,8.30
2023-06-17T11:16:19.219Z,7.90
2023-06-17T11:17:19.224Z,7.90
2023-06-17T11:18:19.189Z,8.20
2023-06-17T11:19:19.175Z,7.70
2023-06-17T11:20:19.373Z,7.00
2023-06-17T11:21:19.177Z,6.80
2023-06-17T11:22:19.142Z,7.50
2023-06-17T11:23:19.126Z,8.20
2023-06-17T11:24:19.153Z,8.60
2023-06-17T11:25:19.648Z,8.90
2023-06-17T11:26:19.100Z,8.40
2023-06-17T11:27:19.077Z,8.30
2023-06-17T11:28:19.090Z,8.00
2023-06-17T11:29:19.084Z,7.40
2023-06-17T11:30:19.396Z,8.30
2023-06-17T11:31:19.059Z,7.90
2023-06-17T11:32:19.032Z,7.90
2023-06-17T11:33:19.012Z,7.70
2023-06-17T11:34:19.009Z,8.10
2023-06-17T11:35:19.007Z,7.50
2023-06-17T11:36:19.007Z,6.90
2023-06-17T11:37:18.972Z,7.80
2023-06-17T11:38:18.971Z,7.00
2023-06-17T11:39:18.959Z,6.60
2023-06-17T11:40:19.151Z,7.70
2023-06-17T11:41:18.961Z,7.80
2023-06-17T11:42:18.955Z,7.90
2023-06-17T11:43:18.903Z,8.10
2023-06-17T11:44:18.917Z,7.40
2023-06-17T11:45:18.894Z,7.80
2023-06-17T11:46:18.913Z,7.90
2023-06-17T11:47:18.900Z,7.60
2023-06-17T11:48:18.874Z,7.60
2023-06-17T11:49:18.839Z,7.00
2023-06-17T11:50:19.198Z,7.50
2023-06-17T11:51:20.774Z,7.50
2023-06-17T11:52:18.815Z,8.00
2023-06-17T11:53:18.823Z,7.60
2023-06-17T11:54:18.797Z,7.60
2023-06-17T11:55:18.797Z,7.30
2023-06-17T11:56:18.769Z,7.70
2023-06-17T11:57:18.771Z,7.30
2023-06-17T11:58:18.750Z,6.90
2023-06-17T11:59:18.753Z,6.50
2023-06-17T12:00:18.913Z,7.50
2023-06-17T12:01:18.715Z,7.20
2023-06-17T12:02:18.824Z,6.60
2023-06-17T12:03:18.732Z,7.30
2023-06-17T12:04:18.757Z,6.90
2023-06-17T12:05:18.691Z,6.10
2023-06-17T12:06:18.661Z,5.50
2023-06-17T12:07:18.646Z,6.00
2023-06-17T12:08:18.661Z,6.20
2023-06-17T12:09:18.627Z,6.60
2023-06-17T12:10:19.028Z,6.80
2023-06-17T12:11:18.631Z,6.10
2023-06-17T12:12:18.597Z,6.10
2023-06-17T12:13:18.590Z,6.60
2023-06-17T12:14:18.583Z,6.60
2023-06-17T12:15:18.593Z,7.60
2023-06-17T12:16:19.174Z,7.40
2023-06-17T12:17:18.549Z,7.20
2023-06-17T12:18:18.533Z,6.10
2023-06-17T12:19:18.531Z,7.10
2023-06-17T12:20:18.572Z,6.60
2023-06-17T12:21:18.504Z,6.90
2023-06-17T12:22:18.499Z,6.90
2023-06-17T12:23:18.487Z,5.80
2023-06-17T12:24:18.489Z,6.40
2023-06-17T12:25:18.474Z,6.60
2023-06-17T12:26:18.470Z,5.90
2023-06-17T12:27:18.435Z,6.20
2023-06-17T12:28:18.433Z,6.00
2023-06-17T12:29:25.272Z,6.10
2023-06-17T12:30:18.406Z,6.10
2023-06-17T12:31:18.416Z,5.70
2023-06-17T12:32:18.386Z,6.10
2023-06-17T12:33:18.375Z,5.60
2023-06-17T12:34:18.372Z,5.90
2023-06-17T12:35:18.590Z,5.90
2023-06-17T12:36:18.391Z,6.30
2023-06-17T12:37:18.342Z,6.50
2023-06-17T12:38:18.328Z,6.30
2023-06-17T12:39:18.316Z,6.40
2023-06-17T12:40:18.322Z,6.40
2023-06-17T12:41:18.319Z,6.20
2023-06-17T12:42:18.323Z,5.80
2023-06-17T12:43:18.291Z,5.50
2023-06-17T12:44:19.088Z,6.70
2023-06-17T12:45:18.750Z,6.10
2023-06-17T12:46:18.337Z,6.10
2023-06-17T12:47:18.223Z,5.80
2023-06-17T12:48:18.232Z,5.80
2023-06-17T12:49:18.208Z,5.50
2023-06-17T12:50:18.231Z,5.20
2023-06-17T12:51:18.213Z,5.30
2023-06-17T12:52:18.190Z,5.60
2023-06-17T12:53:18.174Z,5.90
2023-06-17T12:54:18.944Z,5.60
2023-06-17T12:55:18.239Z,6.10
2023-06-17T12:56:18.134Z,6.30
2023-06-17T12:57:18.147Z,5.50
2023-06-17T12:58:18.132Z,6.00
2023-06-17T12:59:18.110Z,6.00